createdAt,value
2019-02-06T00:01:19.209Z,33.37
2019-02-06T00:03:55.282Z,33.87
2019-02-06T00:06:27.080Z,36.23
2019-02-06T00:09:00.649Z,35.50
2019-02-06T00:11:35.132Z,35.20
2019-02-06T00:14:06.793Z,34.33
2019-02-06T00:16:40.125Z,34.70
2019-02-06T00:19:12.196Z,27.83
2019-02-06T00:21:44.532Z,32.57
2019-02-06T00:24:16.154Z,34.60
2019-02-06T00:26:47.809Z,28.27
2019-02-06T00:29:19.461Z,33.43
2019-02-06T00:31:52.908Z,31.47
2019-02-06T00:34:24.661Z,26.80
2019-02-06T00:36:56.309Z,31.40
2019-02-06T00:39:34.597Z,32.33
2019-02-06T00:42:06.344Z,34.07
2019-02-06T00:44:52.461Z,35.57
2019-02-06T00:47:24.114Z,31.97
2019-02-06T00:50:03.358Z,30.03
2019-02-06T00:52:34.994Z,28.47
2019-02-06T00:55:06.743Z,33.73
2019-02-06T00:57:42.513Z,26.53
2019-02-06T01:00:21.460Z,31.53
2019-02-06T01:02:53.305Z,36.17
2019-02-06T01:05:25.144Z,35.80
2019-02-06T01:07:56.885Z,35.90
2019-02-06T01:10:28.977Z,35.27
2019-02-06T01:13:00.709Z,36.90
2019-02-06T01:15:32.461Z,32.87
2019-02-06T01:18:04.902Z,33.37
2019-02-06T01:20:36.626Z,38.70
2019-02-06T01:23:08.398Z,32.47
2019-02-06T01:25:43.264Z,37.50
2019-02-06T01:28:14.902Z,28.67
2019-02-06T01:30:51.813Z,35.17
2019-02-06T01:33:23.437Z,34.47
2019-02-06T01:35:55.174Z,26.60
2019-02-06T01:38:26.817Z,31.33
2019-02-06T01:40:58.466Z,28.67
2019-02-06T01:43:30.112Z,33.83
2019-02-06T01:46:02.153Z,30.27
2019-02-06T01:48:33.783Z,37.40
2019-02-06T01:51:05.623Z,40.10
2019-02-06T01:53:37.360Z,31.87
2019-02-06T01:56:09.108Z,36.57
2019-02-06T01:58:40.811Z,38.37
2019-02-06T02:01:12.442Z,43.13
2019-02-06T02:03:44.322Z,34.47
2019-02-06T02:06:15.961Z,35.87
2019-02-06T02:08:56.313Z,42.27
2019-02-06T02:11:28.048Z,40.17
2019-02-06T02:13:59.675Z,44.20
2019-02-06T02:16:31.408Z,43.23
2019-02-06T02:19:03.677Z,44.47
2019-02-06T02:21:35.425Z,44.50
2019-02-06T02:24:07.046Z,47.67
2019-02-06T02:26:38.788Z,47.53
2019-02-06T02:29:10.418Z,50.73
2019-02-06T02:31:42.437Z,46.27
2019-02-06T02:34:14.063Z,47.20
2019-02-06T02:36:45.810Z,48.13
2019-02-06T02:39:17.422Z,46.77
2019-02-06T02:41:49.097Z,51.90
2019-02-06T02:44:21.068Z,52.03
2019-02-06T02:46:52.703Z,52.37
2019-02-06T02:49:24.327Z,47.97
2019-02-06T02:51:55.967Z,54.30
2019-02-06T02:54:29.217Z,53.70
2019-02-06T02:57:01.253Z,55.30
2019-02-06T02:59:32.989Z,53.23
2019-02-06T03:02:18.300Z,57.57
2019-02-06T03:04:54.170Z,49.20
2019-02-06T03:07:26.072Z,51.80
2019-02-06T03:10:00.480Z,57.57
2019-02-06T03:12:32.449Z,56.10
2019-02-06T03:15:04.854Z,61.53
2019-02-06T03:17:36.499Z,60.10
2019-02-06T03:20:09.406Z,54.53
2019-02-06T03:22:41.157Z,64.87
2019-02-06T03:25:13.296Z,62.70
2019-02-06T03:27:44.962Z,70.30
2019-02-06T03:30:19.681Z,64.40
2019-02-06T03:32:51.589Z,70.30
2019-02-06T03:35:23.308Z,67.43
2019-02-06T03:37:54.963Z,68.13
2019-02-06T03:40:26.861Z,69.93
2019-02-06T03:42:58.812Z,64.83
2019-02-06T03:45:31.730Z,69.77
2019-02-06T03:48:03.534Z,67.77
2019-02-06T03:50:35.178Z,69.30
2019-02-06T03:53:06.941Z,70.30
2019-02-06T03:55:38.568Z,68.30
2019-02-06T03:58:10.221Z,70.50
2019-02-06T04:00:41.850Z,74.37
2019-02-06T04:03:13.507Z,73.73
2019-02-06T04:05:45.122Z,79.27
2019-02-06T04:08:16.783Z,79.93
2019-02-06T04:10:48.402Z,77.27
2019-02-06T04:13:20.068Z,78.47
2019-02-06T04:15:51.803Z,82.40
2019-02-06T04:18:23.554Z,82.10
2019-02-06T04:20:55.179Z,83.17
2019-02-06T04:23:26.837Z,73.63
2019-02-06T04:25:58.459Z,86.60
2019-02-06T04:28:30.235Z,86.53
2019-02-06T04:31:01.875Z,94.47
2019-02-06T04:33:33.600Z,91.60
2019-02-06T04:36:05.662Z,94.00
2019-02-06T04:38:37.413Z,101.03
2019-02-06T04:41:09.131Z,106.77
2019-02-06T04:43:41.595Z,101.27
2019-02-06T04:46:27.568Z,104.63
2019-02-06T04:48:59.210Z,112.00
2019-02-06T04:51:30.833Z,108.80
2019-02-06T04:54:02.973Z,112.37
2019-02-06T04:56:34.592Z,106.47
2019-02-06T04:59:06.258Z,110.00
2019-02-06T05:01:37.880Z,111.37
2019-02-06T05:04:09.522Z,130.13
2019-02-06T05:06:41.157Z,109.67
2019-02-06T05:09:12.906Z,122.47
2019-02-06T05:11:44.531Z,119.00
2019-02-06T05:14:16.284Z,101.57
2019-02-06T05:16:47.906Z,116.93
2019-02-06T05:19:19.558Z,125.20
2019-02-06T05:21:51.172Z,116.87
2019-02-06T05:24:23.021Z,107.60
2019-02-06T05:26:54.695Z,115.47
2019-02-06T05:29:26.412Z,134.77
2019-02-06T05:31:58.284Z,120.77
2019-02-06T05:34:29.904Z,135.97
2019-02-06T05:37:01.825Z,139.87
2019-02-06T05:39:33.463Z,145.37
2019-02-06T05:42:05.095Z,146.73
2019-02-06T05:44:36.733Z,162.90
2019-02-06T05:47:08.349Z,147.93
2019-02-06T05:49:40.292Z,152.63
2019-02-06T05:52:11.933Z,175.07
2019-02-06T05:54:43.688Z,178.67
2019-02-06T05:57:15.338Z,172.07
2019-02-06T05:59:47.066Z,181.73
2019-02-06T06:02:18.768Z,191.70
2019-02-06T06:04:50.422Z,198.20
2019-02-06T06:07:22.041Z,181.33
2019-02-06T06:09:53.690Z,202.27
2019-02-06T06:12:25.305Z,192.97
2019-02-06T06:14:56.956Z,205.60
2019-02-06T06:17:28.881Z,220.83
2019-02-06T06:20:00.530Z,220.33
2019-02-06T06:22:32.252Z,186.03
2019-02-06T06:25:04.521Z,225.43
2019-02-06T06:27:36.141Z,194.03
2019-02-06T06:30:10.369Z,176.30
2019-02-06T06:32:42.191Z,167.53
2019-02-06T06:35:14.001Z,167.37
2019-02-06T06:37:57.683Z,171.73
2019-02-06T06:40:20.373Z,165.43
2019-02-06T06:42:52.304Z,142.53
2019-02-06T06:45:24.148Z,140.00
2019-02-06T06:47:55.775Z,129.00
2019-02-06T06:50:27.436Z,143.43
2019-02-06T06:52:59.065Z,116.40
2019-02-06T06:55:31.020Z,115.77
2019-02-06T06:58:02.762Z,119.87
2019-02-06T07:00:34.497Z,107.90
2019-02-06T07:03:06.118Z,111.10
2019-02-06T07:05:37.750Z,115.23
2019-02-06T07:08:13.393Z,103.67
2019-02-06T07:10:43.328Z,107.47
2019-02-06T07:13:14.977Z,92.23
2019-02-06T07:15:46.644Z,100.80
2019-02-06T07:18:18.264Z,114.80
2019-02-06T07:20:49.925Z,96.23
2019-02-06T07:23:21.564Z,108.97
2019-02-06T07:25:53.213Z,101.00
2019-02-06T07:28:24.842Z,92.90
2019-02-06T07:30:56.492Z,96.97
2019-02-06T07:33:28.329Z,101.43
2019-02-06T07:35:59.960Z,112.03
2019-02-06T07:38:31.592Z,105.97
2019-02-06T07:41:03.245Z,89.17
2019-02-06T07:43:34.968Z,75.13
2019-02-06T07:46:06.814Z,65.03
2019-02-06T07:48:38.547Z,68.77
2019-02-06T07:51:10.188Z,54.73
2019-02-06T07:53:41.834Z,66.53
2019-02-06T07:56:13.593Z,56.10
2019-02-06T07:58:45.620Z,57.53
2019-02-06T08:01:17.261Z,60.00
2019-02-06T08:03:48.893Z,56.77
2019-02-06T08:06:20.555Z,56.30
2019-02-06T08:08:52.378Z,56.30
2019-02-06T08:11:24.424Z,53.23
2019-02-06T08:13:56.150Z,64.83
2019-02-06T08:16:27.817Z,56.47
2019-02-06T08:22:20.917Z,57.17
2019-02-06T08:24:52.706Z,49.30
2019-02-06T08:27:26.388Z,56.07
2019-02-06T08:29:57.933Z,59.37
2019-02-06T08:32:29.551Z,58.03
2019-02-06T08:35:01.193Z,54.03
2019-02-06T08:37:32.830Z,49.33
2019-02-06T08:40:05.325Z,49.13
2019-02-06T08:42:36.969Z,51.23
2019-02-06T08:45:09.077Z,56.00
2019-02-06T08:47:40.762Z,50.57
2019-02-06T08:50:13.100Z,49.80
2019-02-06T08:52:45.057Z,48.13
2019-02-06T08:55:18.831Z,48.77
2019-02-06T08:57:50.869Z,43.23
2019-02-06T09:00:33.433Z,54.40
2019-02-06T09:03:06.626Z,47.03
2019-02-06T09:05:38.361Z,45.00
2019-02-06T09:08:10.188Z,51.63
2019-02-06T09:10:41.823Z,46.37
2019-02-06T09:13:13.557Z,46.00
2019-02-06T09:15:45.180Z,45.90
2019-02-06T09:18:16.917Z,44.67
2019-02-06T09:20:48.557Z,48.90
2019-02-06T09:23:20.188Z,51.80
2019-02-06T09:25:51.913Z,48.00
2019-02-06T09:28:23.644Z,52.53
2019-02-06T09:30:55.264Z,43.20
2019-02-06T09:33:26.909Z,42.47
2019-02-06T09:35:58.526Z,44.30
2019-02-06T09:38:30.170Z,44.63
2019-02-06T09:41:01.781Z,42.37
2019-02-06T09:43:33.612Z,41.63
2019-02-06T09:46:05.245Z,41.77
2019-02-06T09:48:36.878Z,42.60
2019-02-06T09:51:08.505Z,41.80
2019-02-06T09:53:40.149Z,35.73
2019-02-06T09:56:11.967Z,41.23
2019-02-06T09:58:43.615Z,39.30
2019-02-06T10:01:15.381Z,43.00
2019-02-06T10:03:47.146Z,38.50
2019-02-06T10:06:18.841Z,36.87
2019-02-06T10:08:50.997Z,39.97
2019-02-06T10:11:22.617Z,51.00
2019-02-06T10:13:54.249Z,35.13
2019-02-06T10:16:25.860Z,43.73
2019-02-06T10:18:57.501Z,41.17
2019-02-06T10:21:29.632Z,28.43
2019-02-06T10:24:01.273Z,30.67
2019-02-06T10:26:32.997Z,31.47
2019-02-06T10:29:04.740Z,40.87
2019-02-06T10:31:36.385Z,33.23
2019-02-06T10:34:08.419Z,45.07
2019-02-06T10:36:40.029Z,34.77
2019-02-06T10:39:11.673Z,28.20
2019-02-06T10:41:43.500Z,37.57
2019-02-06T10:44:15.129Z,31.93
2019-02-06T10:46:47.154Z,40.53
2019-02-06T10:49:18.797Z,31.90
2019-02-06T10:51:50.430Z,32.67
2019-02-06T10:54:22.053Z,31.77
2019-02-06T10:56:53.685Z,28.10
2019-02-06T10:59:25.336Z,28.33
2019-02-06T11:01:56.970Z,29.93
2019-02-06T11:04:28.634Z,26.67
2019-02-06T11:07:00.264Z,33.77
2019-02-06T11:09:31.901Z,43.47
2019-02-06T11:12:03.557Z,24.63
2019-02-06T11:14:35.308Z,23.97
2019-02-06T11:17:06.973Z,30.03
2019-02-06T11:19:38.612Z,38.63
2019-02-06T11:22:10.346Z,29.63
2019-02-06T11:24:41.994Z,32.00
2019-02-06T11:27:13.725Z,32.13
2019-02-06T11:29:48.249Z,33.03
2019-02-06T11:32:18.890Z,28.93
2019-02-06T11:34:50.536Z,20.47
2019-02-06T11:37:22.161Z,28.27
2019-02-06T11:39:58.177Z,20.70
2019-02-06T11:42:27.336Z,26.07
2019-02-06T11:44:58.960Z,26.33
2019-02-06T11:47:30.591Z,33.57
2019-02-06T11:50:05.738Z,22.30
2019-02-06T11:52:37.392Z,27.37
2019-02-06T11:55:11.815Z,18.67
2019-02-06T11:57:43.441Z,28.23
2019-02-06T12:00:21.352Z,26.27
2019-02-06T12:02:53.086Z,22.47
2019-02-06T12:05:24.833Z,20.13
2019-02-06T12:07:56.568Z,26.70
2019-02-06T12:10:28.309Z,23.07
2019-02-06T12:12:59.932Z,19.77
2019-02-06T12:15:31.581Z,22.53
2019-02-06T12:18:03.997Z,17.93
2019-02-06T12:20:35.866Z,19.13
2019-02-06T12:23:07.513Z,28.17
2019-02-06T12:25:39.150Z,29.10
2019-02-06T12:28:11.064Z,16.07
2019-02-06T12:30:42.809Z,73.40
2019-02-06T12:33:14.456Z,32.43
2019-02-06T12:35:46.086Z,25.47
2019-02-06T12:38:17.739Z,34.80
2019-02-06T12:40:49.790Z,22.00
2019-02-06T12:43:21.513Z,19.07
2019-02-06T12:45:53.142Z,20.83
2019-02-06T12:48:24.871Z,21.20
2019-02-06T12:50:56.502Z,24.10
2019-02-06T12:53:28.120Z,19.30
2019-02-06T12:56:01.069Z,23.40
2019-02-06T12:58:32.796Z,25.03
2019-02-06T13:01:04.836Z,18.40
2019-02-06T13:03:36.478Z,20.67
2019-02-06T13:06:08.206Z,21.33
2019-02-06T13:08:40.125Z,30.20
2019-02-06T13:11:11.781Z,19.93
2019-02-06T13:13:45.333Z,19.87
2019-02-06T13:16:16.938Z,21.23
2019-02-06T13:18:48.652Z,21.07
2019-02-06T13:21:20.802Z,22.23
2019-02-06T13:23:52.520Z,23.00
2019-02-06T13:26:24.193Z,20.73
2019-02-06T13:28:55.837Z,20.97
2019-02-06T13:31:27.490Z,21.73
2019-02-06T13:33:59.473Z,22.50
2019-02-06T13:36:31.262Z,26.33
2019-02-06T13:39:08.378Z,28.23
2019-02-06T13:41:40.017Z,27.03
2019-02-06T13:44:11.745Z,20.83
2019-02-06T13:46:53.018Z,32.20
2019-02-06T13:49:17.113Z,31.07
2019-02-06T13:51:48.833Z,36.23
2019-02-06T13:54:20.452Z,20.77
2019-02-06T13:56:52.106Z,24.33
2019-02-06T13:59:23.909Z,22.60
2019-02-06T14:01:55.568Z,29.53
2019-02-06T14:04:27.202Z,30.77
2019-02-06T14:06:58.908Z,24.60
2019-02-06T14:09:30.651Z,21.07
2019-02-06T14:12:02.396Z,23.37
2019-02-06T14:14:34.037Z,24.70
2019-02-06T14:17:05.792Z,27.67
2019-02-06T14:19:37.429Z,24.33
2019-02-06T14:22:09.997Z,24.10
2019-02-06T14:24:46.016Z,29.77
2019-02-06T14:28:04.642Z,31.03
2019-02-06T14:31:04.897Z,24.07
2019-02-06T14:33:52.462Z,26.50
2019-02-06T14:36:54.885Z,30.43
2019-02-06T14:39:55.024Z,30.07
2019-02-06T14:42:34.556Z,26.07
2019-02-06T14:46:18.477Z,26.43
2019-02-06T14:49:14.028Z,28.40
2019-02-06T14:52:33.557Z,33.87
2019-02-06T14:55:23.662Z,29.60
2019-02-06T14:58:27.265Z,36.67
2019-02-06T15:01:19.565Z,32.07
2019-02-06T15:04:42.630Z,29.07
2019-02-06T15:07:33.492Z,27.37
2019-02-06T15:10:11.389Z,30.67
2019-02-06T15:13:34.313Z,36.07
2019-02-06T15:16:16.288Z,29.77
2019-02-06T15:19:00.416Z,41.27
2019-02-06T15:21:45.341Z,32.90
2019-02-06T15:24:29.724Z,25.50
2019-02-06T15:27:31.681Z,36.57
2019-02-06T15:30:25.853Z,29.40
2019-02-06T15:33:23.290Z,29.60
2019-02-06T15:36:18.768Z,39.63
2019-02-06T15:39:09.219Z,28.33
2019-02-06T15:41:57.769Z,42.97
2019-02-06T15:44:51.169Z,34.40
2019-02-06T15:47:49.994Z,28.57
2019-02-06T15:50:36.657Z,31.20
2019-02-06T15:53:39.249Z,28.80
2019-02-06T15:56:18.493Z,31.00
2019-02-06T15:59:09.262Z,31.97
2019-02-06T16:02:38.131Z,30.80
2019-02-06T16:05:45.638Z,31.43
2019-02-06T16:09:14.557Z,30.33
2019-02-06T16:12:34.025Z,33.60
2019-02-06T16:15:15.977Z,28.27
2019-02-06T16:17:57.453Z,34.67
2019-02-06T16:21:07.146Z,39.33
2019-02-06T16:24:04.400Z,33.50
2019-02-06T16:27:02.191Z,35.57
2019-02-06T16:30:00.568Z,32.80
2019-02-06T16:33:07.477Z,34.97
2019-02-06T16:35:57.941Z,41.17
2019-02-06T16:38:37.623Z,40.53
2019-02-06T16:42:02.336Z,36.73
2019-02-06T16:44:57.351Z,46.47
2019-02-06T16:48:26.186Z,39.37
2019-02-06T16:51:06.539Z,38.17
2019-02-06T16:54:08.326Z,41.73
2019-02-06T16:57:04.017Z,36.93
2019-02-06T17:00:05.803Z,38.23
2019-02-06T17:03:31.505Z,43.00
2019-02-06T17:06:11.450Z,39.93
2019-02-06T17:09:18.100Z,43.60
2019-02-06T17:12:17.606Z,41.33
2019-02-06T17:15:05.125Z,38.07
2019-02-06T17:17:47.423Z,48.50
2019-02-06T17:20:56.864Z,44.20
2019-02-06T17:24:08.180Z,44.07
2019-02-06T17:27:03.706Z,46.47
2019-02-06T17:30:15.455Z,51.13
2019-02-06T17:33:09.320Z,42.90
2019-02-06T17:35:57.676Z,40.23
2019-02-06T17:38:44.236Z,53.27
2019-02-06T17:41:31.425Z,42.83
2019-02-06T17:44:28.902Z,44.67
2019-02-06T17:47:36.528Z,47.13
2019-02-06T17:50:53.613Z,47.50
2019-02-06T17:53:39.291Z,45.17
2019-02-06T17:56:11.025Z,45.47
2019-02-06T17:58:43.128Z,43.40
2019-02-06T18:01:36.588Z,43.67
2019-02-06T18:04:10.990Z,41.97
2019-02-06T18:06:42.630Z,40.70
2019-02-06T18:09:15.877Z,47.53
2019-02-06T18:11:49.630Z,41.67
2019-02-06T18:14:21.357Z,48.67
2019-02-06T18:16:53.099Z,43.67
2019-02-06T18:19:24.848Z,47.13
2019-02-06T18:21:56.983Z,37.43
2019-02-06T18:24:28.781Z,45.37
2019-02-06T18:27:05.225Z,37.93
2019-02-06T18:29:36.972Z,46.87
2019-02-06T18:32:08.929Z,41.90
2019-02-06T18:34:41.262Z,48.63
2019-02-06T18:37:13.930Z,42.83
2019-02-06T18:39:45.665Z,38.73
2019-02-06T18:42:17.606Z,43.53
2019-02-06T18:44:49.349Z,37.20
2019-02-06T18:47:21.542Z,42.20
2019-02-06T18:49:53.293Z,35.63
2019-02-06T18:52:25.069Z,42.20
2019-02-06T18:54:56.799Z,42.97
2019-02-06T18:57:28.602Z,40.80
2019-02-06T19:00:00.486Z,35.33
2019-02-06T19:02:44.175Z,38.33
2019-02-06T19:05:17.200Z,39.67
2019-02-06T19:07:50.285Z,33.63
2019-02-06T19:10:25.040Z,38.50
2019-02-06T19:12:57.273Z,48.20
2019-02-06T19:15:29.511Z,40.37
2019-02-06T19:18:01.466Z,43.40
2019-02-06T19:20:35.700Z,39.17
2019-02-06T19:23:06.940Z,37.97
2019-02-06T19:25:38.673Z,37.60
2019-02-06T19:28:10.437Z,35.17
2019-02-06T19:30:42.560Z,41.80
2019-02-06T19:33:17.050Z,38.07
2019-02-06T19:35:47.871Z,39.90
2019-02-06T19:38:19.533Z,40.87
2019-02-06T19:40:51.289Z,62.53
2019-02-06T19:43:23.258Z,41.63
2019-02-06T19:45:54.914Z,37.43
2019-02-06T19:48:26.670Z,38.13
2019-02-06T19:50:58.459Z,39.83
2019-02-06T19:53:30.235Z,42.40
2019-02-06T19:56:02.338Z,42.37
2019-02-06T19:58:34.102Z,39.00
2019-02-06T20:01:05.980Z,47.20
2019-02-06T20:03:37.768Z,36.80
2019-02-06T20:06:27.306Z,31.57
2019-02-06T20:09:00.835Z,39.23
2019-02-06T20:11:32.767Z,31.50
2019-02-06T20:14:04.744Z,36.03
2019-02-06T20:16:36.506Z,37.57
2019-02-06T20:19:08.330Z,32.57
2019-02-06T20:21:40.076Z,41.10
2019-02-06T20:24:12.132Z,33.87
2019-02-06T20:26:44.010Z,34.87
2019-02-06T20:29:15.915Z,40.63
2019-02-06T20:31:47.711Z,39.33
2019-02-06T20:34:19.558Z,32.47
2019-02-06T20:36:51.688Z,30.03
2019-02-06T20:39:23.572Z,39.90
2019-02-06T20:41:55.498Z,38.63
2019-02-06T20:44:29.778Z,36.17
2019-02-06T20:47:00.926Z,39.90
2019-02-06T20:49:33.197Z,40.30
2019-02-06T20:52:05.139Z,37.33
2019-02-06T20:54:36.967Z,40.37
2019-02-06T20:57:13.538Z,39.73
2019-02-06T20:59:42.366Z,35.90
2019-02-06T21:02:14.150Z,31.17
2019-02-06T21:04:47.107Z,33.40
2019-02-06T21:07:18.858Z,35.93
2019-02-06T21:09:51.002Z,44.87
2019-02-06T21:12:22.760Z,57.47
2019-02-06T21:14:54.512Z,34.97
2019-02-06T21:17:26.185Z,35.40
2019-02-06T21:19:58.674Z,34.43
2019-02-06T21:22:30.529Z,32.40
2019-02-06T21:25:04.041Z,30.80
2019-02-06T21:27:36.307Z,27.37
2019-02-06T21:30:23.435Z,31.27
2019-02-06T21:32:55.286Z,39.40
2019-02-06T21:35:27.118Z,34.77
2019-02-06T21:37:59.383Z,28.83
2019-02-06T21:40:32.175Z,34.67
2019-02-06T21:43:04.631Z,33.97
2019-02-06T21:45:36.389Z,39.43
2019-02-06T21:48:08.149Z,34.67
2019-02-06T21:50:40.198Z,39.17
2019-02-06T21:53:11.934Z,39.47
2019-02-06T21:55:43.679Z,31.93
2019-02-06T21:58:15.331Z,32.53
2019-02-06T22:00:47.077Z,30.43
2019-02-06T22:03:19.024Z,37.13
2019-02-06T22:05:50.679Z,32.10
2019-02-06T22:08:22.314Z,34.23
2019-02-06T22:10:54.172Z,33.80
2019-02-06T22:13:25.897Z,32.50
2019-02-06T22:15:57.742Z,30.50
2019-02-06T22:18:29.386Z,35.53
2019-02-06T22:21:01.117Z,29.17
2019-02-06T22:23:32.745Z,33.43
2019-02-06T22:26:04.491Z,38.17
2019-02-06T22:28:36.316Z,34.40
2019-02-06T22:31:07.965Z,35.40
2019-02-06T22:33:39.693Z,34.77
2019-02-06T22:36:11.340Z,29.33
2019-02-06T22:38:42.965Z,36.27
2019-02-06T22:41:14.705Z,40.67
2019-02-06T22:43:46.389Z,38.37
2019-02-06T22:46:18.029Z,32.37
2019-02-06T22:48:49.745Z,39.13
2019-02-06T22:51:21.381Z,36.70
2019-02-06T22:53:53.114Z,35.07
2019-02-06T22:56:24.748Z,37.43
2019-02-06T22:58:56.393Z,36.37
2019-02-06T23:01:31.816Z,38.73
2019-02-06T23:04:04.151Z,34.53
2019-02-06T23:06:35.884Z,40.70
2019-02-06T23:09:08.069Z,29.60
2019-02-06T23:11:39.685Z,29.93
2019-02-06T23:14:17.467Z,41.73
2019-02-06T23:16:45.141Z,33.80
2019-02-06T23:19:16.877Z,33.13
2019-02-06T23:21:48.617Z,30.77
2019-02-06T23:24:20.259Z,35.83
2019-02-06T23:26:51.927Z,41.57
2019-02-06T23:29:24.198Z,40.43
2019-02-06T23:31:55.836Z,34.40
2019-02-06T23:34:27.567Z,38.50
2019-02-06T23:36:59.193Z,32.40
2019-02-06T23:39:30.905Z,35.67
2019-02-06T23:42:03.149Z,37.67
2019-02-06T23:44:34.782Z,34.77
2019-02-06T23:47:06.521Z,42.67
2019-02-06T23:49:38.137Z,40.80
2019-02-06T23:52:09.765Z,35.63
2019-02-06T23:54:41.490Z,37.27
2019-02-06T23:57:13.226Z,36.23
2019-02-06T23:59:44.855Z,30.97
